Time;durP1;ratioP1;P1;durP2;ratioP2;P2;SDS_P1;SDS_P2;PMS_P1;PMS_P2;Temp;Humidity;BMP_temperature;BMP_pressure;BME280_temperature;BME280_humidity;BME280_pressure;Samples;Min_cycle;Max_cycle;Signal;HPM_P1;HPM_P2
2022/01/24 00:02:23;;;;;;;;;57.33;36.33;;;;;3.08;100.00;102886.19;5118093;27;44823;-83
2022/01/24 00:04:50;;;;;;;;;58.67;44.00;;;;;3.08;100.00;102899.31;5099651;27;44712;-83
2022/01/24 00:07:19;;;;;;;;;56.00;42.67;;;;;3.06;100.00;102895.84;5118231;27;44836;-83
2022/01/24 00:09:45;;;;;;;;;54.00;40.67;;;;;3.03;100.00;102887.06;5117698;27;45414;-83
2022/01/24 00:12:17;;;;;;;;;61.00;43.33;;;;;3.01;100.00;102888.84;5099710;27;44843;-82
2022/01/24 00:28:10;;;;;;;;;45.33;39.00;;;;;2.90;100.00;102875.72;5108144;27;45513;-82
2022/01/24 00:30:36;;;;;;;;;51.00;39.00;;;;;2.86;100.00;102883.59;5119186;27;45182;-83
2022/01/24 00:33:02;;;;;;;;;37.67;29.00;;;;;2.83;100.00;102880.09;5117860;27;45274;-83
2022/01/24 00:35:27;;;;;;;;;54.33;41.33;;;;;2.82;100.00;102877.47;5117926;27;45470;-82
2022/01/24 00:37:58;;;;;;;;;52.33;41.00;;;;;2.77;100.00;102872.22;5118175;27;44785;-82
2022/01/24 00:40:25;;;;;;;;;55.00;39.00;;;;;2.76;100.00;102869.63;5119133;27;45105;-83
2022/01/24 00:42:58;;;;;;;;;54.00;41.00;;;;;2.75;100.00;102867.84;5120313;27;44771;-83
2022/01/24 00:48:09;;;;;;;;;56.00;42.00;;;;;2.72;100.00;102865.22;5119167;27;45384;-81
2022/01/24 00:53:37;;;;;;;;;53.33;41.67;;;;;2.68;100.00;102859.09;5119075;27;44746;-83
2022/01/24 00:56:03;;;;;;;;;48.33;38.33;;;;;2.66;100.00;102866.13;5119065;27;45311;-82
2022/01/24 00:58:28;;;;;;;;;56.33;42.67;;;;;2.66;100.00;102857.34;5123868;27;44869;-82
2022/01/24 01:00:54;;;;;;;;;52.00;39.67;;;;;2.65;100.00;102852.97;5117320;27;45029;-83
2022/01/24 01:03:20;;;;;;;;;55.00;42.33;;;;;2.65;100.00;102851.22;5117291;27;45336;-82
2022/01/24 01:18:07;;;;;;;;;50.67;40.00;;;;;2.65;100.00;102852.97;5117269;27;44835;-83
2022/01/24 01:19:09;;;;;;;;;43.67;36.33;;;;;2.61;100.00;102846.88;5117680;27;44751;-81
2022/01/24 01:21:35;;;;;;;;;60.00;43.33;;;;;2.62;100.00;102847.75;5117913;27;45180;-82
2022/01/24 01:24:01;;;;;;;;;57.00;43.33;;;;;2.61;100.00;102851.22;5118231;27;44697;-82
2022/01/24 01:26:47;;;;;;;;;51.00;39.67;;;;;2.61;100.00;102853.84;5118147;27;44879;-82
2022/01/24 01:29:27;;;;;;;;;34.67;27.67;;;;;2.61;100.00;102845.97;5120843;27;45044;-82
2022/01/24 01:55:40;;;;;;;;;55.33;44.00;;;;;2.46;100.00;102850.34;5120953;27;45245;-82
2022/01/24 01:58:10;;;;;;;;;56.67;42.33;;;;;2.43;100.00;102849.47;5119987;27;44843;-80
2022/01/24 02:00:39;;;;;;;;;56.67;43.67;;;;;2.41;100.00;102844.22;5120757;27;44845;-82
2022/01/24 02:03:05;;;;;;;;;54.33;41.67;;;;;2.39;100.00;102842.47;5131377;27;45113;-82
2022/01/24 02:05:31;;;;;;;;;49.67;40.33;;;;;2.36;100.00;102852.94;5114507;27;45423;-81
2022/01/24 02:07:57;;;;;;;;;58.67;43.33;;;;;2.34;100.00;102854.72;5125061;27;44764;-82
2022/01/24 02:10:24;;;;;;;;;56.33;44.00;;;;;2.30;100.00;102848.56;5120532;27;45193;-82
2022/01/24 02:12:51;;;;;;;;;55.67;44.33;;;;;2.24;100.00;102849.44;5119190;27;45183;-81
2022/01/24 02:15:26;;;;;;;;;52.00;43.00;;;;;2.21;100.00;102848.56;5121072;27;44684;-83
2022/01/24 02:18:09;;;;;;;;;58.00;46.00;;;;;2.23;100.00;102859.94;5120766;27;45408;-82
2022/01/24 02:23:21;;;;;;;;;56.00;45.00;;;;;2.21;100.00;102859.06;5121150;27;45001;-80
2022/01/24 02:25:46;;;;;;;;;57.33;45.00;;;;;2.18;100.00;102857.31;5120771;27;45213;-82
2022/01/24 02:28:15;;;;;;;;;57.67;43.67;;;;;2.15;100.00;102851.19;5121113;27;44826;-82
2022/01/24 02:33:28;;;;;;;;;60.67;43.00;;;;;2.07;100.00;102840.66;5121159;27;44985;-82
2022/01/24 02:35:54;;;;;;;;;55.67;44.00;;;;;2.05;100.00;102837.19;5122562;27;44811;-82
2022/01/24 02:45:59;;;;;;;;;56.33;44.33;;;;;2.00;100.00;102839.78;5127135;27;44858;-82
2022/01/24 02:48:57;;;;;;;;;58.33;42.67;;;;;1.91;100.00;102836.25;5127708;27;44710;-80
2022/01/24 02:51:43;;;;;;;;;57.67;47.00;;;;;1.87;100.00;102822.28;5110268;27;45150;-83
2022/01/24 02:54:19;;;;;;;;;65.33;49.67;;;;;1.83;100.00;102832.75;5126497;27;45302;-81
2022/01/24 02:56:44;;;;;;;;;57.33;44.00;;;;;1.78;100.00;102822.25;5126979;27;44724;-80
2022/01/24 02:59:10;;;;;;;;;50.67;43.33;;;;;1.74;100.00;102824.00;5125114;27;44704;-82
2022/01/24 03:01:35;;;;;;;;;50.00;40.33;;;;;1.73;100.00;102822.22;5124412;27;44886;-82
2022/01/24 03:04:00;;;;;;;;;36.00;25.00;;;;;1.68;100.00;102813.47;5102659;27;46965;-83
2022/01/24 03:06:26;;;;;;;;;55.33;44.00;;;;;1.67;100.00;102811.72;5102041;27;44750;-83
2022/01/24 03:08:51;;;;;;;;;65.33;45.67;;;;;1.63;100.00;102815.22;5119167;27;45357;-82
2022/01/24 03:11:17;;;;;;;;;66.33;48.33;;;;;1.61;100.00;102816.97;5120207;27;44748;-81
2022/01/24 03:13:42;;;;;;;;;59.00;45.67;;;;;1.60;100.00;102816.97;5123258;27;45031;-81
2022/01/24 03:16:08;;;;;;;;;51.33;44.00;;;;;1.60;100.00;102817.84;5126863;27;45387;-81
2022/01/24 03:18:34;;;;;;;;;56.33;45.00;;;;;1.60;100.00;102806.50;5100777;27;44869;-82
2022/01/24 03:21:00;;;;;;;;;58.33;43.00;;;;;1.58;100.00;102809.06;5119504;27;45563;-81
2022/01/24 03:23:27;;;;;;;;;68.67;44.00;;;;;1.57;100.00;102809.09;5120444;27;45492;-82
2022/01/24 03:25:53;;;;;;;;;66.00;44.33;;;;;1.54;100.00;102804.69;5121005;27;45175;-83
2022/01/24 03:28:18;;;;;;;;;60.67;47.00;;;;;1.54;100.00;102812.56;5120459;27;44727;-81
2022/01/24 03:30:45;;;;;;;;;51.00;41.67;;;;;1.50;100.00;102803.84;5119358;27;45209;-82
2022/01/24 03:33:11;;;;;;;;;53.67;44.00;;;;;1.52;100.00;102803.81;5120755;27;45280;-82
2022/01/24 03:35:40;;;;;;;;;52.67;43.67;;;;;1.51;100.00;102813.44;5120120;27;44769;-82
2022/01/24 03:38:06;;;;;;;;;55.00;46.33;;;;;1.53;100.00;102813.44;5120439;27;44888;-82
2022/01/24 03:40:31;;;;;;;;;57.00;43.33;;;;;1.52;100.00;102802.06;5102143;27;45596;-83
2022/01/24 03:42:57;;;;;;;;;52.33;41.33;;;;;1.53;100.00;102800.31;5102658;27;47535;-82
2022/01/24 03:45:38;;;;;;;;;58.33;40.67;;;;;1.53;100.00;102800.31;5121135;27;45442;-82
2022/01/24 03:50:31;;;;;;;;;54.00;42.33;;;;;1.52;100.00;102795.97;5127902;27;45355;-82
2022/01/24 03:52:56;;;;;;;;;57.33;42.33;;;;;1.54;100.00;102796.84;5123788;27;45184;-81
2022/01/24 03:55:21;;;;;;;;;57.00;43.33;;;;;1.56;100.00;102794.25;5119916;27;45427;-82
2022/01/24 03:57:47;;;;;;;;;62.00;47.00;;;;;1.57;100.00;102796.00;5100762;27;44939;-82
2022/01/24 04:00:13;;;;;;;;;62.33;45.33;;;;;1.56;100.00;102789.88;5119164;27;44743;-82
2022/01/24 04:02:39;;;;;;;;;51.33;43.33;;;;;1.55;100.00;102790.75;5118110;27;45467;-83
2022/01/24 04:05:05;;;;;;;;;65.50;46.00;;;;;1.56;100.00;102789.88;5118626;27;44887;-83
2022/01/24 04:07:31;;;;;;;;;52.33;43.33;;;;;1.57;100.00;102791.63;5118643;27;45529;-82
2022/01/24 04:10:01;;;;;;;;;56.00;37.33;;;;;1.57;100.00;102781.16;5118605;27;44821;-81
2022/01/24 04:12:27;;;;;;;;;50.00;42.00;;;;;1.60;100.00;102778.53;5099917;27;47058;-82
2022/01/24 04:22:34;;;;;;;;;59.00;42.00;;;;;1.52;100.00;102778.50;5130792;27;45017;-82
2022/01/24 04:25:02;;;;;;;;;53.00;41.67;;;;;1.50;100.00;102777.63;5126043;27;45535;-81
2022/01/24 04:27:29;;;;;;;;;53.67;42.67;;;;;1.48;100.00;102778.50;5124178;27;44663;-81
2022/01/24 04:29:55;;;;;;;;;58.33;44.33;;;;;1.43;100.00;102777.59;5120280;27;45612;-81
2022/01/24 04:32:21;;;;;;;;;61.00;43.00;;;;;1.39;100.00;102778.44;5099807;27;46022;-82
2022/01/24 04:34:47;;;;;;;;;41.00;38.67;;;;;1.34;100.00;102781.03;5100216;27;44935;-82
2022/01/24 04:37:12;;;;;;;;;53.00;43.33;;;;;1.31;100.00;102777.56;5120224;27;44863;-82
2022/01/24 04:39:38;;;;;;;;;47.33;42.33;;;;;1.29;100.00;102788.88;5120727;27;44839;-81
2022/01/24 04:42:10;;;;;;;;;57.33;45.67;;;;;1.27;100.00;102787.16;5099705;27;45478;-81
2022/01/24 04:44:57;;;;;;;;;58.67;42.67;;;;;1.25;100.00;102787.09;5118647;27;44743;-82
2022/01/24 04:47:32;;;;;;;;;55.00;42.00;;;;;1.22;100.00;102789.72;5119619;27;44833;-82
2022/01/24 04:52:57;;;;;;;;;56.00;41.00;;;;;1.19;100.00;102789.72;5119527;27;44862;-82
2022/01/24 04:55:22;;;;;;;;;49.00;41.33;;;;;1.16;100.00;102783.56;5120799;27;44687;-81
2022/01/24 04:57:49;;;;;;;;;60.67;38.33;;;;;1.14;100.00;102790.56;5120415;27;45395;-81
2022/01/24 05:00:15;;;;;;;;;56.00;41.67;;;;;1.13;100.00;102783.56;5119836;27;45324;-82
2022/01/24 05:02:40;;;;;;;;;62.00;41.67;;;;;1.11;100.00;102780.06;5124982;27;44970;-82
2022/01/24 05:05:10;;;;;;;;;50.67;43.00;;;;;1.10;100.00;102784.44;5103745;27;44692;-82
2022/01/24 05:07:35;;;;;;;;;54.67;41.33;;;;;1.10;100.00;102789.66;5117954;27;44821;-81
2022/01/24 05:25:59;;;;;;;;;54.33;41.67;;;;;1.07;100.00;102794.03;5117766;27;44815;-82
2022/01/24 05:28:25;;;;;;;;;46.33;41.67;;;;;1.05;100.00;102795.75;5117391;27;44824;-82
2022/01/24 05:30:52;;;;;;;;;58.00;43.33;;;;;1.01;100.00;102790.47;5117598;27;44690;-81
2022/01/24 05:33:18;;;;;;;;;63.00;48.00;;;;;1.00;100.00;102788.72;5098385;27;47315;-82
2022/01/24 05:35:43;;;;;;;;;55.00;45.00;;;;;0.98;100.00;102777.41;5117695;27;44723;-83
2022/01/24 05:38:10;;;;;;;;;60.33;43.67;;;;;0.97;100.00;102785.25;5121039;27;44713;-82
2022/01/24 05:40:36;;;;;;;;;61.00;45.00;;;;;0.97;100.00;102790.47;5124958;27;44787;-80
2022/01/24 05:43:01;;;;;;;;;52.00;41.67;;;;;0.96;100.00;102781.72;5121749;27;45338;-82
2022/01/24 05:45:27;;;;;;;;;58.33;41.67;;;;;0.94;100.00;102786.09;5098639;27;45412;-82
2022/01/24 05:47:52;;;;;;;;;63.33;45.67;;;;;0.93;100.00;102778.25;5117096;27;44736;-82
2022/01/24 05:50:18;;;;;;;;;44.00;39.00;;;;;0.93;100.00;102779.13;5116816;27;44887;-81
2022/01/24 05:52:43;;;;;;;;;47.00;39.33;;;;;0.93;100.00;102771.25;5117393;27;45114;-83
2022/01/24 05:55:10;;;;;;;;;56.00;42.33;;;;;0.93;100.00;102775.63;5116917;27;44810;-82
2022/01/24 05:57:38;;;;;;;;;48.67;39.67;;;;;0.94;100.00;102783.47;5117256;27;44732;-83
2022/01/24 06:00:07;;;;;;;;;56.00;45.67;;;;;0.96;100.00;102781.72;5117075;27;45244;-83
2022/01/24 06:02:32;;;;;;;;;47.00;40.33;;;;;0.99;100.00;102780.88;5116832;27;45081;-83
2022/01/24 06:04:58;;;;;;;;;54.00;40.33;;;;;0.98;100.00;102780.00;5116209;27;44820;-80
2022/01/24 06:07:23;;;;;;;;;48.33;42.33;;;;;1.00;100.00;102780.00;5097921;27;44938;-83
2022/01/24 06:09:48;;;;;;;;;52.33;42.00;;;;;0.98;100.00;102780.00;5092025;27;45317;-83
2022/01/24 06:12:17;;;;;;;;;61.00;45.67;;;;;0.95;100.00;102779.97;5097465;27;45355;-82
2022/01/24 06:14:42;;;;;;;;;56.67;44.00;;;;;0.92;100.00;102774.75;5099799;27;44782;-82
2022/01/24 06:17:08;;;;;;;;;58.67;44.33;;;;;0.94;100.00;102785.22;5104630;27;44812;-83
2022/01/24 06:19:33;;;;;;;;;54.33;46.00;;;;;0.93;100.00;102781.72;5098342;27;45158;-83
2022/01/24 06:22:00;;;;;;;;;52.00;43.00;;;;;0.92;100.00;102774.75;5096212;27;45353;-83
2022/01/24 06:24:25;;;;;;;;;56.67;44.33;;;;;0.92;100.00;102779.06;5097642;27;45522;-83
2022/01/24 06:26:50;;;;;;;;;58.67;46.33;;;;;0.91;100.00;102787.81;5099884;27;44808;-84
2022/01/24 06:29:19;;;;;;;;;54.00;40.67;;;;;0.89;100.00;102781.69;5102371;27;44724;-83
2022/01/24 06:31:45;;;;;;;;;59.33;42.67;;;;;0.87;100.00;102789.56;5101263;27;45410;-83
2022/01/24 06:34:10;;;;;;;;;58.67;45.33;;;;;0.85;100.00;102788.66;5100892;27;44931;-84
2022/01/24 06:36:36;;;;;;;;;55.00;41.67;;;;;0.81;100.00;102792.09;5081690;27;44724;-83
2022/01/24 06:39:03;;;;;;;;;49.00;38.67;;;;;0.81;100.00;102794.72;5103124;27;44943;-82
2022/01/24 06:41:32;;;;;;;;;55.33;43.00;;;;;0.83;100.00;102792.13;5111528;27;45284;-83
2022/01/24 06:43:58;;;;;;;;;51.33;42.00;;;;;0.86;100.00;102793.00;5109484;27;44726;-82
2022/01/24 06:46:25;;;;;;;;;58.33;46.00;;;;;0.86;100.00;102784.28;5105543;27;44694;-82
2022/01/24 06:48:50;;;;;;;;;58.00;46.67;;;;;0.87;100.00;102788.66;5101321;27;44774;-82
2022/01/24 06:51:18;;;;;;;;;64.00;49.00;;;;;0.88;100.00;102791.28;5100666;27;45013;-84
2022/01/24 06:53:43;;;;;;;;;59.67;43.67;;;;;0.86;100.00;102792.13;5105758;27;44816;-84
2022/01/24 06:56:09;;;;;;;;;55.00;43.00;;;;;0.87;100.00;102801.72;5105758;27;45567;-82
2022/01/24 06:58:35;;;;;;;;;50.33;43.00;;;;;0.86;100.00;102798.25;5100032;27;45417;-84
2022/01/24 07:01:02;;;;;;;;;53.67;44.67;;;;;0.88;100.00;102793.03;5098934;27;45102;-82
2022/01/24 07:03:27;;;;;;;;;57.67;41.33;;;;;0.86;100.00;102798.25;5099002;27;44857;-82
2022/01/24 07:05:54;;;;;;;;;55.00;39.00;;;;;0.85;100.00;102799.09;5099463;27;45264;-83
2022/01/24 07:08:20;;;;;;;;;52.67;40.00;;;;;0.85;100.00;102796.50;5099007;27;45463;-84
2022/01/24 07:10:45;;;;;;;;;40.67;35.33;;;;;0.88;100.00;102799.13;5111767;27;45455;-84
2022/01/24 07:13:11;;;;;;;;;61.00;43.00;;;;;0.89;100.00;102797.41;5118916;27;44883;-83
2022/01/24 07:15:45;;;;;;;;;52.33;45.00;;;;;0.88;100.00;102798.28;5118951;27;45969;-83
2022/01/24 07:20:59;;;;;;;;;47.00;39.33;;;;;0.89;100.00;102803.50;5118786;27;45396;-83
2022/01/24 07:23:24;;;;;;;;;63.33;45.00;;;;;0.89;100.00;102805.25;5116159;27;44782;-84
2022/01/24 07:25:50;;;;;;;;;61.00;42.00;;;;;0.89;100.00;102802.63;5119961;27;45427;-87
2022/01/24 07:28:16;;;;;;;;;60.33;45.67;;;;;0.91;100.00;102804.38;5121124;27;45581;-85
2022/01/24 07:30:43;;;;;;;;;58.00;42.00;;;;;0.90;100.00;102802.63;5125502;27;44957;-85
2022/01/24 07:33:08;;;;;;;;;59.00;43.67;;;;;0.92;100.00;102802.63;5106700;27;45257;-85
2022/01/24 07:35:34;;;;;;;;;61.67;45.33;;;;;0.91;100.00;102800.88;5127811;27;44793;-86
2022/01/24 07:38:02;;;;;;;;;61.67;43.67;;;;;0.90;100.00;102805.25;5122603;27;44957;-86
2022/01/24 07:40:28;;;;;;;;;54.33;41.67;;;;;0.91;100.00;102800.88;5120573;27;45238;-85
2022/01/24 07:43:08;;;;;;;;;66.00;46.00;;;;;0.90;100.00;102807.88;5120417;27;44718;-85
2022/01/24 07:45:35;;;;;;;;;62.33;42.33;;;;;0.94;100.00;102806.16;5123152;27;45299;-84
2022/01/24 07:48:01;;;;;;;;;65.67;46.00;;;;;0.99;100.00;102799.19;5104483;27;44903;-88
2022/01/24 07:50:27;;;;;;;;;64.00;45.67;;;;;1.02;100.00;102796.63;5123345;27;45091;-83
2022/01/24 07:52:55;;;;;;;;;50.67;39.67;;;;;1.07;100.00;102797.50;5120740;27;44828;-85
2022/01/24 07:55:20;;;;;;;;;76.00;58.00;;;;;1.10;100.00;102801.88;5123926;27;44909;-85
2022/01/24 07:57:45;;;;;;;;;71.50;52.50;;;;;1.15;100.00;102808.88;5101884;27;44808;-85
2022/01/24 08:00:12;;;;;;;;;79.50;59.00;;;;;1.20;100.00;102807.16;5119325;27;45193;-85
2022/01/24 08:02:38;;;;;;;;;74.33;54.00;;;;;1.25;100.00;102808.06;5121818;27;45016;-85
2022/01/24 08:05:05;;;;;;;;;68.67;53.00;;;;;1.32;100.00;102810.72;5119973;27;44814;-85
2022/01/24 08:07:30;;;;;;;;;68.00;52.00;;;;;1.37;100.00;102817.72;5118381;27;44876;-84
2022/01/24 08:09:55;;;;;;;;;72.00;53.67;;;;;1.44;100.00;102819.50;5120078;27;44974;-86
2022/01/24 08:12:21;;;;;;;;;72.33;52.00;;;;;1.50;100.00;102819.53;5120495;27;44785;-84
2022/01/24 08:14:46;;;;;;;;;74.00;52.00;;;;;1.57;100.00;102824.81;5105099;27;45318;-85
2022/01/24 08:17:11;;;;;;;;;50.00;39.33;;;;;1.62;100.00;102815.22;5131660;27;44928;-85
2022/01/24 08:19:37;;;;;;;;;59.33;41.33;;;;;1.68;100.00;102821.34;5111382;27;46772;-86
2022/01/24 08:22:04;;;;;;;;;60.33;48.67;;;;;1.72;100.00;102823.09;5125350;27;44620;-85
2022/01/24 08:24:32;;;;;;;;;52.00;42.33;;;;;1.82;100.00;102825.75;5123817;27;45305;-85
2022/01/24 08:26:58;;;;;;;;;60.33;44.00;;;;;1.89;100.00;102827.53;5119695;27;44888;-83
2022/01/24 08:29:23;;;;;;;;;52.67;41.00;;;;;1.92;100.00;102820.53;5120865;27;45035;-84
2022/01/24 08:31:49;;;;;;;;;58.67;44.33;;;;;2.01;100.00;102827.56;5121537;27;44842;-86
2022/01/24 08:34:15;;;;;;;;;42.67;36.33;;;;;2.07;100.00;102822.31;5086394;27;44765;-84
2022/01/24 08:36:40;;;;;;;;;65.33;47.33;;;;;2.14;100.00;102824.09;5100582;27;44837;-84
2022/01/24 08:39:08;;;;;;;;;53.33;43.33;;;;;2.20;100.00;102829.34;5100008;27;45385;-84
2022/01/24 08:41:49;;;;;;;;;57.67;44.33;;;;;2.27;100.00;102822.34;5097135;27;44703;-85
2022/01/24 08:44:32;;;;;;;;;54.67;44.00;;;;;2.36;100.00;102829.34;5100009;27;44744;-86
2022/01/24 08:46:58;;;;;;;;;51.33;39.00;;;;;2.45;100.00;102826.72;5084837;27;45657;-85
2022/01/24 08:49:23;;;;;;;;;57.33;45.00;;;;;2.53;100.00;102827.63;5116343;27;45261;-85
2022/01/24 08:51:49;;;;;;;;;56.67;47.67;;;;;2.60;100.00;102829.34;5101672;27;44852;-84
2022/01/24 08:54:15;;;;;;;;;59.67;47.00;;;;;2.69;100.00;102831.09;5101500;27;44849;-86
2022/01/24 08:56:41;;;;;;;;;58.67;45.00;;;;;2.78;100.00;102831.09;5103735;27;44900;-84
2022/01/24 08:59:07;;;;;;;;;58.33;44.00;;;;;2.84;100.00;102823.22;5107032;27;47145;-84
2022/01/24 09:01:33;;;;;;;;;55.67;46.33;;;;;2.93;100.00;102823.22;5107699;27;44774;-84
2022/01/24 09:03:58;;;;;;;;;45.33;39.00;;;;;3.00;100.00;102824.97;5102452;27;44887;-84
2022/01/24 09:06:24;;;;;;;;;64.67;44.00;;;;;3.09;100.00;102839.78;5100274;27;44917;-84
2022/01/24 09:08:55;;;;;;;;;54.00;42.00;;;;;3.17;100.00;102830.16;5098558;27;45513;-84
2022/01/24 09:11:28;;;;;;;;;33.33;33.33;;;;;3.25;100.00;102836.28;5094629;27;45446;-84
2022/01/24 09:13:53;;;;;;;;;49.67;41.33;;;;;3.32;100.00;102832.75;5098938;27;44899;-84
2022/01/24 09:16:22;;;;;;;;;55.67;41.00;;;;;3.43;100.00;102831.81;5098070;27;45736;-85
2022/01/24 09:18:47;;;;;;;;;62.00;46.33;;;;;3.50;100.00;102831.81;5084849;27;45191;-85
2022/01/24 09:21:13;;;;;;;;;52.00;42.00;;;;;3.58;100.00;102835.28;5078173;27;44719;-84
2022/01/24 09:23:39;;;;;;;;;56.67;44.00;;;;;3.63;100.00;102827.41;5096635;27;45301;-83
2022/01/24 09:26:04;;;;;;;;;53.00;42.00;;;;;3.70;100.00;102830.84;5078126;27;44890;-84
2022/01/24 09:28:30;;;;;;;;;54.33;40.67;;;;;3.75;100.00;102832.56;5077744;27;46503;-83
2022/01/24 09:30:57;;;;;;;;;53.67;42.33;;;;;3.83;100.00;102822.03;5099445;27;44639;-84
2022/01/24 09:33:23;;;;;;;;;56.33;43.00;;;;;3.91;100.00;102821.97;5083361;27;44706;-83
2022/01/24 09:35:48;;;;;;;;;53.00;42.67;;;;;4.00;100.00;102820.16;5080447;27;44878;-84
2022/01/24 09:38:15;;;;;;;;;62.00;46.00;;;;;4.00;100.00;102811.41;5079297;27;45268;-84
2022/01/24 09:40:41;;;;;;;;;49.00;40.00;;;;;4.06;100.00;102820.16;5059667;28;45329;-84
2022/01/24 09:43:06;;;;;;;;;62.67;45.67;;;;;4.10;100.00;102829.75;5085302;28;44709;-85
2022/01/24 09:45:32;;;;;;;;;53.00;42.67;;;;;4.17;100.00;102824.47;5067728;28;44859;-84
2022/01/24 09:47:58;;;;;;;;;54.33;38.67;;;;;4.10;100.00;102823.59;5062188;27;45494;-83
2022/01/24 09:50:24;;;;;;;;;55.67;41.67;;;;;4.13;100.00;102823.59;5097657;27;44696;-84
2022/01/24 09:52:50;;;;;;;;;55.67;41.33;;;;;4.18;100.00;102829.69;5081908;27;45562;-84
2022/01/24 09:55:19;;;;;;;;;51.00;41.67;;;;;4.18;100.00;102831.47;5082162;27;45017;-83
2022/01/24 09:57:47;;;;;;;;;49.33;39.33;;;;;4.15;100.00;102829.72;5080041;27;46729;-85
2022/01/24 10:00:15;;;;;;;;;48.33;41.33;;;;;4.17;100.00;102838.47;5081347;27;44811;-85
2022/01/24 10:02:44;;;;;;;;;53.00;42.67;;;;;4.30;100.00;102834.91;5084347;27;44737;-84
2022/01/24 10:05:39;;;;;;;;;53.67;44.33;;;;;4.44;100.00;102831.25;5084486;27;45308;-84
2022/01/24 10:08:08;;;;;;;;;53.33;41.67;;;;;4.58;100.00;102829.41;5058129;28;45214;-85
2022/01/24 10:10:45;;;;;;;;;46.67;38.67;;;;;4.65;100.00;102823.22;5052005;28;44920;-85
2022/01/24 10:16:35;;;;;;;;;55.67;42.33;;;;;4.84;100.00;102819.53;5077192;28;44826;-85
2022/01/24 10:19:20;;;;;;;;;58.00;45.00;;;;;4.91;100.00;102825.59;5059842;28;45792;-83
2022/01/24 10:21:54;;;;;;;;;58.33;44.00;;;;;4.95;100.00;102819.41;5078299;28;44814;-84
2022/01/24 10:24:26;;;;;;;;;60.33;44.33;;;;;5.01;100.00;102821.09;5061683;28;44817;-85
2022/01/24 10:27:29;;;;;;;;;55.33;42.33;;;;;5.13;100.00;102813.97;5067888;28;44920;-84
2022/01/24 10:30:07;;;;;;;;;53.67;42.33;;;;;5.09;100.00;102821.91;5023216;28;46897;-85
2022/01/24 10:32:38;;;;;;;;;62.00;42.67;;;;;5.06;100.00;102817.53;5022630;28;44921;-84
2022/01/24 10:35:28;;;;;;;;;52.67;40.67;;;;;5.12;100.00;102819.22;5020463;28;44786;-84
2022/01/24 10:43:34;;;;;;;;;58.67;46.33;;;;;5.15;100.00;102813.94;5019523;28;45459;-84
2022/01/24 11:19:13;;;;;;;;;;;;;;;;;;;;;
2022/01/24 11:40:42;;;;;;;;;54.00;42.00;;;;;6.50;100.00;102764.59;4899667;29;45005;-84
2022/01/24 11:47:21;;;;;;;;;46.33;38.00;;;;;6.68;100.00;102751.06;4860206;29;45283;-85
2022/01/24 11:50:58;;;;;;;;;;;;;;;;;;;;;
2022/01/24 12:01:36;;;;;;;;;50.67;39.33;;;;;6.98;100.00;102754.91;4817669;29;44884;-84
2022/01/24 12:04:37;;;;;;;;;46.33;39.00;;;;;6.97;100.00;102747.88;4820587;29;45277;-84
2022/01/24 12:07:20;;;;;;;;;44.67;36.33;;;;;6.96;100.00;102746.09;4818921;29;45429;-85
2022/01/24 12:09:46;;;;;;;;;37.00;34.00;;;;;7.05;100.00;102747.72;4817284;29;44908;-85
2022/01/24 12:12:44;;;;;;;;;48.33;39.67;;;;;7.03;100.00;102745.09;5071762;27;2935530;-84
2022/01/24 12:15:31;;;;;;;;;49.67;38.67;;;;;7.13;100.00;102744.00;5138532;27;45379;-85
2022/01/24 12:18:01;;;;;;;;;54.33;37.67;;;;;7.27;100.00;102742.88;5157936;27;45484;-86
2022/01/24 12:20:29;;;;;;;;;50.00;40.00;;;;;7.29;100.00;102741.91;5139406;27;44820;-86
2022/01/24 12:22:55;;;;;;;;;51.67;43.00;;;;;7.33;100.00;102740.94;5157042;27;45381;-85
2022/01/24 12:25:52;;;;;;;;;49.50;40.00;;;;;7.41;100.00;102741.66;5138375;27;45422;-87
2022/01/24 12:28:26;;;;;;;;;52.00;39.00;;;;;7.41;100.00;102732.88;5157271;27;44811;-84
2022/01/24 12:31:03;;;;;;;;;51.00;40.67;;;;;7.44;100.00;102728.38;5159665;27;45419;-85
2022/01/24 12:33:42;;;;;;;;;39.33;34.33;;;;;7.49;100.00;102730.91;5160007;27;45283;-86
2022/01/24 12:36:13;;;;;;;;;54.00;40.00;;;;;7.51;100.00;102738.84;5161989;27;44754;-85
2022/01/24 12:38:42;;;;;;;;;50.00;39.67;;;;;7.55;100.00;102738.72;5162085;27;44678;-85
2022/01/24 12:41:34;;;;;;;;;44.33;37.33;;;;;7.53;100.00;102732.59;5163416;27;44916;-85
2022/01/24 12:46:31;;;;;;;;;42.33;36.33;;;;;7.48;100.00;102727.41;5143005;27;45460;-85
2022/01/24 12:49:01;;;;;;;;;47.67;35.33;;;;;7.53;100.00;102726.44;5107352;27;44900;-85
2022/01/24 12:51:29;;;;;;;;;39.67;32.67;;;;;7.55;100.00;102722.88;5114562;27;45301;-86
2022/01/24 12:53:55;;;;;;;;;53.67;39.00;;;;;7.54;100.00;102722.88;5114667;27;45327;-85
2022/01/24 12:56:26;;;;;;;;;41.67;34.67;;;;;7.52;100.00;102720.28;5096495;27;44873;-86
2022/01/24 12:58:53;;;;;;;;;41.33;36.00;;;;;7.58;100.00;102720.13;5116109;27;44730;-86
2022/01/24 13:01:31;;;;;;;;;50.67;41.67;;;;;7.70;100.00;102721.66;5098146;27;45481;-85
2022/01/24 13:04:04;;;;;;;;;49.67;37.00;;;;;7.77;100.00;102727.66;5104489;27;45562;-85
2022/01/24 13:06:32;;;;;;;;;45.33;37.00;;;;;7.82;100.00;102724.00;5117157;27;45301;-84
2022/01/24 13:09:10;;;;;;;;;38.33;32.33;;;;;7.83;100.00;102720.47;5134724;27;45046;-84
2022/01/24 13:11:47;;;;;;;;;32.00;29.50;;;;;7.86;100.00;102722.16;5121641;27;45722;-85
2022/01/24 13:14:19;;;;;;;;;28.50;26.25;;;;;7.85;100.00;102716.00;5113800;27;45268;-85
2022/01/24 13:25:16;;;;;;;;;31.00;27.25;;;;;7.90;100.00;102703.53;5126862;27;45423;-85
2022/01/24 13:27:48;;;;;;;;;33.00;30.67;;;;;7.93;100.00;102702.59;5120222;27;45399;-84
2022/01/24 13:30:24;;;;;;;;;26.00;25.33;;;;;7.93;100.00;102700.81;5120143;27;45381;-84
2022/01/24 13:32:58;;;;;;;;;30.00;28.00;;;;;7.94;100.00;102702.53;5119438;27;44990;-84
2022/01/24 13:35:38;;;;;;;;;29.00;26.75;;;;;7.97;100.00;102694.50;5121423;27;47065;-83
2022/01/24 13:38:13;;;;;;;;;27.25;25.00;;;;;8.02;100.00;102697.03;5125032;27;45504;-84
2022/01/24 13:43:32;;;;;;;;;26.50;26.00;;;;;8.08;100.00;102688.97;5121239;27;45222;-84
2022/01/24 13:45:59;;;;;;;;;32.67;29.00;;;;;8.07;100.00;102695.16;5119538;27;45140;-83
2022/01/24 13:48:25;;;;;;;;;38.25;27.75;;;;;8.12;100.00;102689.75;5119692;27;45310;-85
2022/01/24 13:50:59;;;;;;;;;40.50;29.00;;;;;8.17;100.00;102694.03;5119513;27;45292;-83
2022/01/24 13:53:38;;;;;;;;;25.33;23.67;;;;;8.18;100.00;102686.97;5084552;27;45363;-84
2022/01/24 13:56:32;;;;;;;;;28.25;27.50;;;;;8.22;100.00;102689.50;5118815;27;45291;-85
2022/01/24 13:59:19;;;;;;;;;38.50;31.50;;;;;8.22;100.00;102688.63;5100799;27;45260;-85
2022/01/24 14:02:06;;;;;;;;;35.00;26.00;;;;;8.26;100.00;102687.59;5120280;27;44791;-84
2022/01/24 14:04:46;;;;;;;;;30.50;25.75;;;;;8.30;100.00;102689.28;5120637;27;44808;-84
2022/01/24 14:07:21;;;;;;;;;34.33;28.33;;;;;8.27;100.00;102688.47;5101968;27;45297;-83
2022/01/24 14:09:52;;;;;;;;;32.75;30.75;;;;;8.29;100.00;102697.28;5122852;27;44821;-83
2022/01/24 14:12:34;;;;;;;;;34.50;27.75;;;;;8.30;100.00;102696.34;5119592;27;45358;-84
2022/01/24 14:15:19;;;;;;;;;36.00;32.75;;;;;8.24;100.00;102695.59;5119858;27;44800;-84
2022/01/24 14:18:06;;;;;;;;;37.75;29.25;;;;;8.18;100.00;102700.19;5120003;27;45223;-84
2022/01/24 14:20:31;;;;;;;;;36.00;33.00;;;;;8.07;100.00;102694.28;5119050;27;44775;-83
2022/01/24 14:22:56;;;;;;;;;37.00;31.00;;;;;8.05;100.00;102698.75;5117567;27;45092;-85
2022/01/24 14:25:31;;;;;;;;;34.00;32.33;;;;;8.05;100.00;102706.69;5119218;27;45477;-84
2022/01/24 14:27:58;;;;;;;;;31.25;29.00;;;;;8.03;100.00;102708.53;5118543;27;45331;-83
2022/01/24 14:30:27;;;;;;;;;32.33;30.33;;;;;7.92;100.00;102704.34;5099665;27;44914;-84